createdAt,value
2018-11-29T00:00:28.241Z,16.13
2018-11-29T00:02:56.049Z,15.17
2018-11-29T00:05:23.584Z,15.00
2018-11-29T00:07:51.144Z,14.50
2018-11-29T00:10:18.653Z,15.00
2018-11-29T00:12:46.088Z,15.23
2018-11-29T00:15:14.383Z,15.17
2018-11-29T00:17:41.836Z,14.77
2018-11-29T00:20:10.454Z,15.50
2018-11-29T00:22:37.861Z,15.20
2018-11-29T00:25:06.781Z,12.67
2018-11-29T00:27:34.209Z,13.70
2018-11-29T00:30:01.798Z,13.90
2018-11-29T00:32:29.221Z,13.93
2018-11-29T00:34:56.653Z,14.90
2018-11-29T00:37:24.054Z,14.33
2018-11-29T00:39:51.493Z,12.80
2018-11-29T00:42:18.913Z,13.13
2018-11-29T00:44:46.353Z,14.20
2018-11-29T00:47:13.761Z,14.50
2018-11-29T00:49:41.270Z,14.23
2018-11-29T00:52:08.677Z,13.33
2018-11-29T00:54:36.178Z,14.10
2018-11-29T00:57:04.046Z,14.13
2018-11-29T00:59:31.482Z,13.20
2018-11-29T01:01:59.911Z,13.70
2018-11-29T01:04:28.056Z,13.77
2018-11-29T01:06:56.577Z,13.60
2018-11-29T01:09:24.082Z,14.60
2018-11-29T01:11:51.565Z,13.93
2018-11-29T01:14:19.081Z,13.70
2018-11-29T01:16:46.569Z,13.53
2018-11-29T01:19:14.035Z,13.60
2018-11-29T01:21:41.437Z,13.47
2018-11-29T01:24:08.889Z,13.23
2018-11-29T01:26:36.313Z,14.30
2018-11-29T01:29:03.778Z,13.83
2018-11-29T01:31:31.190Z,14.00
2018-11-29T01:33:58.617Z,13.27
2018-11-29T01:36:26.077Z,13.90
2018-11-29T01:38:53.551Z,14.80
2018-11-29T01:41:20.966Z,13.73
2018-11-29T01:43:48.393Z,14.60
2018-11-29T01:46:15.827Z,14.00
2018-11-29T01:48:43.289Z,14.23
2018-11-29T01:51:10.749Z,13.80
2018-11-29T01:53:38.163Z,13.70
2018-11-29T01:56:06.564Z,14.97
2018-11-29T01:58:33.979Z,13.50
2018-11-29T02:01:01.416Z,15.00
2018-11-29T02:03:28.864Z,15.13
2018-11-29T02:05:56.308Z,13.73
2018-11-29T02:08:23.711Z,14.27
2018-11-29T02:10:51.494Z,15.27
2018-11-29T02:13:19.525Z,12.70
2018-11-29T02:15:46.989Z,15.20
2018-11-29T02:18:14.382Z,14.73
2018-11-29T02:20:41.803Z,15.50
2018-11-29T02:23:09.225Z,15.33
2018-11-29T02:25:36.680Z,14.30
2018-11-29T02:28:04.316Z,15.30
2018-11-29T02:30:31.758Z,14.90
2018-11-29T02:32:59.170Z,15.00
2018-11-29T02:35:26.565Z,15.30
2018-11-29T02:37:53.964Z,16.00
2018-11-29T02:40:21.378Z,15.03
2018-11-29T02:42:49.283Z,15.73
2018-11-29T02:45:20.982Z,17.27
2018-11-29T02:47:48.505Z,14.67
2018-11-29T02:50:15.962Z,15.00
2018-11-29T02:52:43.367Z,15.17
2018-11-29T02:55:11.538Z,17.17
2018-11-29T02:57:45.982Z,15.60
2018-11-29T03:00:16.506Z,15.00
2018-11-29T03:02:43.971Z,14.80
2018-11-29T03:05:11.500Z,14.20
2018-11-29T03:07:38.915Z,16.53
2018-11-29T03:10:08.613Z,15.60
2018-11-29T03:12:36.088Z,15.80
2018-11-29T03:15:03.945Z,17.00
2018-11-29T03:17:31.341Z,15.20
2018-11-29T03:19:58.780Z,15.43
2018-11-29T03:22:26.216Z,17.50
2018-11-29T03:24:53.644Z,16.73
2018-11-29T03:27:21.098Z,16.67
2018-11-29T03:29:48.609Z,16.33
2018-11-29T03:32:16.115Z,16.30
2018-11-29T03:34:43.700Z,17.10
2018-11-29T03:37:11.133Z,16.17
2018-11-29T03:39:38.567Z,18.10
2018-11-29T03:42:06.052Z,16.73
2018-11-29T03:44:33.551Z,17.80
2018-11-29T03:47:01.011Z,18.13
2018-11-29T03:49:28.518Z,17.70
2018-11-29T03:51:55.920Z,18.13
2018-11-29T03:54:23.390Z,16.90
2018-11-29T03:56:50.873Z,18.93
2018-11-29T03:59:18.274Z,17.93
2018-11-29T04:01:45.756Z,17.80
2018-11-29T04:04:13.212Z,18.27
2018-11-29T04:06:40.669Z,17.73
2018-11-29T04:09:09.918Z,16.97
2018-11-29T04:11:37.327Z,18.47
2018-11-29T04:14:05.316Z,16.77
2018-11-29T04:16:32.797Z,18.17
2018-11-29T04:19:01.266Z,17.63
2018-11-29T04:21:28.676Z,17.80
2018-11-29T04:23:56.140Z,16.97
2018-11-29T04:26:23.555Z,17.70
2018-11-29T04:28:50.985Z,19.33
2018-11-29T04:31:18.443Z,20.03
2018-11-29T04:33:45.890Z,19.00
2018-11-29T04:36:13.306Z,19.77
2018-11-29T04:38:40.735Z,19.33
2018-11-29T04:41:08.184Z,17.70
2018-11-29T04:43:35.591Z,18.00
2018-11-29T04:46:43.223Z,18.33
2018-11-29T04:49:10.661Z,18.50
2018-11-29T04:51:38.105Z,18.37
2018-11-29T04:54:06.451Z,16.77
2018-11-29T04:56:33.909Z,18.03
2018-11-29T04:59:01.401Z,17.20
2018-11-29T05:01:29.010Z,18.73
2018-11-29T05:03:56.497Z,19.70
2018-11-29T05:06:23.941Z,18.53
2018-11-29T05:08:51.564Z,17.83
2018-11-29T05:11:19.014Z,18.43
2018-11-29T05:13:46.447Z,18.13
2018-11-29T05:16:14.089Z,18.43
2018-11-29T05:18:41.516Z,18.10
2018-11-29T05:21:08.971Z,18.00
2018-11-29T05:23:36.448Z,17.37
2018-11-29T05:26:03.890Z,18.13
2018-11-29T05:28:31.372Z,19.47
2018-11-29T05:30:58.788Z,19.17
2018-11-29T05:33:26.181Z,19.00
2018-11-29T05:35:53.673Z,19.57
2018-11-29T05:38:21.068Z,19.83
2018-11-29T05:40:48.543Z,19.57
2018-11-29T05:43:16.016Z,19.33
2018-11-29T05:45:44.070Z,18.87
2018-11-29T05:48:11.488Z,18.33
2018-11-29T05:50:38.937Z,19.33
2018-11-29T05:53:06.386Z,20.00
2018-11-29T05:55:33.886Z,18.67
2018-11-29T05:58:01.378Z,19.63
2018-11-29T06:00:28.894Z,18.93
2018-11-29T06:02:56.446Z,19.00
2018-11-29T06:05:23.870Z,18.10
2018-11-29T06:07:51.316Z,19.90
2018-11-29T06:10:19.667Z,18.53
2018-11-29T06:12:47.837Z,17.93
2018-11-29T06:15:15.302Z,18.03
2018-11-29T06:17:42.813Z,20.70
2018-11-29T06:20:14.282Z,19.97
2018-11-29T06:22:41.698Z,20.67
2018-11-29T06:25:09.403Z,20.03
2018-11-29T06:27:36.891Z,19.30
2018-11-29T06:30:07.776Z,19.80
2018-11-29T06:32:35.208Z,17.83
2018-11-29T06:35:02.671Z,18.60
2018-11-29T06:37:30.167Z,18.30
2018-11-29T06:39:57.564Z,18.60
2018-11-29T06:42:25.045Z,19.57
2018-11-29T06:44:52.476Z,18.70
2018-11-29T06:47:19.935Z,19.30
2018-11-29T06:49:47.349Z,18.30
2018-11-29T06:52:14.890Z,18.23
2018-11-29T06:54:42.325Z,18.33
2018-11-29T06:57:09.830Z,19.73
2018-11-29T06:59:37.277Z,19.30
2018-11-29T07:02:04.958Z,19.33
2018-11-29T07:04:32.408Z,20.00
2018-11-29T07:06:59.866Z,19.00
2018-11-29T07:09:27.300Z,19.50
2018-11-29T07:11:54.748Z,19.97
2018-11-29T07:14:22.185Z,18.80
2018-11-29T07:16:49.618Z,19.23
2018-11-29T07:19:17.916Z,20.27
2018-11-29T07:21:49.530Z,18.40
2018-11-29T07:24:16.958Z,18.80
2018-11-29T07:26:44.959Z,18.33
2018-11-29T07:29:16.844Z,19.43
2018-11-29T07:31:39.901Z,19.80
2018-11-29T07:34:07.427Z,20.40
2018-11-29T07:36:34.878Z,19.00
2018-11-29T07:39:02.383Z,20.87
2018-11-29T07:41:29.829Z,19.43
2018-11-29T07:43:57.281Z,18.37
2018-11-29T07:46:24.702Z,18.50
2018-11-29T07:48:52.153Z,18.30
2018-11-29T07:51:19.715Z,20.10
2018-11-29T07:53:47.163Z,20.50
2018-11-29T07:56:14.559Z,20.63
2018-11-29T07:58:42.274Z,18.23
2018-11-29T08:01:09.734Z,19.57
2018-11-29T08:03:37.186Z,19.63
2018-11-29T08:06:05.569Z,18.70
2018-11-29T08:08:32.999Z,19.37
2018-11-29T08:11:00.437Z,18.70
2018-11-29T08:13:27.865Z,16.90
2018-11-29T08:15:55.244Z,17.63
2018-11-29T08:18:22.712Z,18.23
2018-11-29T08:20:50.133Z,17.37
2018-11-29T08:23:17.617Z,17.63
2018-11-29T08:25:45.043Z,18.37
2018-11-29T08:28:12.511Z,17.53
2018-11-29T08:30:40.006Z,16.40
2018-11-29T08:33:07.487Z,18.50
2018-11-29T08:35:34.932Z,17.77
2018-11-29T08:38:02.385Z,17.40
2018-11-29T08:40:29.793Z,17.40
2018-11-29T08:42:57.264Z,17.17
2018-11-29T08:45:24.705Z,17.70
2018-11-29T08:47:52.177Z,17.50
2018-11-29T08:50:20.818Z,16.17
2018-11-29T08:52:48.258Z,16.03
2018-11-29T08:55:19.213Z,16.97
2018-11-29T08:57:47.632Z,16.57
2018-11-29T09:00:16.208Z,18.40
2018-11-29T09:02:43.694Z,17.10
2018-11-29T09:05:11.938Z,19.37
2018-11-29T09:07:39.597Z,18.37
2018-11-29T09:10:09.461Z,17.13
2018-11-29T09:12:36.912Z,17.73
2018-11-29T09:15:05.599Z,18.37
2018-11-29T09:17:38.361Z,17.70
2018-11-29T09:20:18.952Z,17.47
2018-11-29T09:22:46.444Z,18.23
2018-11-29T09:25:15.017Z,17.60
2018-11-29T09:27:42.504Z,17.30
2018-11-29T09:30:12.924Z,17.40
2018-11-29T09:32:41.109Z,17.40
2018-11-29T09:35:08.681Z,17.63
2018-11-29T09:37:36.258Z,18.23
2018-11-29T09:40:04.672Z,16.83
2018-11-29T09:42:32.125Z,16.93
2018-11-29T09:44:59.561Z,17.20
2018-11-29T09:47:26.995Z,16.80
2018-11-29T09:49:54.433Z,15.80
2018-11-29T09:52:21.886Z,17.57
2018-11-29T09:54:49.339Z,17.73
2018-11-29T09:57:16.768Z,15.53
2018-11-29T09:59:44.284Z,16.33
2018-11-29T10:02:11.714Z,14.73
2018-11-29T10:04:39.137Z,15.03
2018-11-29T10:07:06.572Z,15.90
2018-11-29T10:09:34.030Z,15.90
2018-11-29T10:12:01.524Z,15.37
2018-11-29T10:14:28.949Z,14.70
2018-11-29T10:16:56.377Z,15.60
2018-11-29T10:19:23.804Z,15.67
2018-11-29T10:21:51.237Z,15.93
2018-11-29T10:24:18.680Z,15.60
2018-11-29T10:26:46.067Z,15.90
2018-11-29T10:29:13.509Z,16.40
2018-11-29T10:31:40.920Z,14.77
2018-11-29T10:34:08.390Z,15.43
2018-11-29T10:36:35.814Z,15.60
2018-11-29T10:39:04.391Z,15.10
2018-11-29T10:41:31.862Z,15.67
2018-11-29T10:43:59.301Z,15.60
2018-11-29T10:46:26.730Z,14.47
2018-11-29T10:48:54.162Z,15.37
2018-11-29T10:51:21.562Z,15.73
2018-11-29T10:53:48.995Z,14.77
2018-11-29T10:56:16.403Z,15.90
2018-11-29T10:58:43.860Z,15.17
2018-11-29T11:01:17.063Z,14.93
2018-11-29T11:03:44.537Z,15.37
2018-11-29T11:06:11.951Z,14.37
2018-11-29T11:08:39.397Z,15.90
2018-11-29T11:11:07.212Z,15.53
2018-11-29T11:13:35.981Z,14.50
2018-11-29T11:16:03.417Z,15.73
2018-11-29T11:18:30.881Z,16.33
2018-11-29T11:20:58.356Z,15.60
2018-11-29T11:23:25.791Z,15.00
2018-11-29T11:25:53.849Z,15.20
2018-11-29T11:28:21.321Z,15.67
2018-11-29T11:30:48.724Z,16.07
2018-11-29T11:33:16.194Z,14.53
2018-11-29T11:35:43.712Z,15.40
2018-11-29T11:38:11.131Z,15.60
2018-11-29T11:40:38.641Z,15.73
2018-11-29T11:43:06.677Z,16.00
2018-11-29T11:45:34.115Z,16.30
2018-11-29T11:48:03.381Z,14.17
2018-11-29T11:50:29.072Z,14.60
2018-11-29T11:52:56.471Z,13.63
2018-11-29T11:55:30.075Z,14.40
2018-11-29T11:57:54.255Z,15.30
2018-11-29T12:00:28.578Z,14.30
2018-11-29T12:03:00.210Z,14.50
2018-11-29T12:05:27.843Z,14.23
2018-11-29T12:07:55.242Z,16.20
2018-11-29T12:10:22.702Z,14.93
2018-11-29T12:12:50.121Z,14.57
2018-11-29T12:15:17.613Z,15.37
2018-11-29T12:17:45.861Z,14.87
2018-11-29T12:20:14.352Z,14.40
2018-11-29T12:22:41.808Z,14.60
2018-11-29T12:25:11.452Z,16.07
2018-11-29T12:27:38.931Z,14.57
2018-11-29T12:30:18.959Z,14.10
2018-11-29T12:32:46.431Z,14.87
2018-11-29T12:35:14.188Z,14.90
2018-11-29T12:37:41.741Z,14.40
2018-11-29T12:40:10.618Z,14.43
2018-11-29T12:42:38.050Z,13.80
2018-11-29T12:45:07.794Z,14.57
2018-11-29T12:47:35.277Z,14.83
2018-11-29T12:50:02.796Z,14.53
2018-11-29T12:52:30.262Z,14.50
2018-11-29T12:54:58.370Z,14.10
2018-11-29T12:57:25.784Z,15.33
2018-11-29T12:59:53.212Z,13.93
2018-11-29T13:02:20.621Z,13.23
2018-11-29T13:04:48.059Z,14.27
2018-11-29T13:07:15.466Z,14.80
2018-11-29T13:09:42.896Z,14.30
2018-11-29T13:12:10.294Z,14.00
2018-11-29T13:14:37.854Z,14.33
2018-11-29T13:17:05.292Z,15.03
2018-11-29T13:19:32.712Z,14.30
2018-11-29T13:22:00.225Z,14.00
2018-11-29T13:24:27.637Z,14.03
2018-11-29T13:26:55.066Z,15.00
2018-11-29T13:29:22.510Z,14.77
2018-11-29T13:31:49.963Z,14.83
2018-11-29T13:34:17.374Z,15.57
2018-11-29T13:36:45.413Z,15.00
2018-11-29T13:39:12.859Z,15.23
2018-11-29T13:41:40.315Z,14.13
2018-11-29T13:44:07.725Z,14.93
2018-11-29T13:46:35.149Z,15.13
2018-11-29T13:49:02.561Z,15.57
2018-11-29T13:51:29.997Z,14.43
2018-11-29T13:53:57.450Z,13.33
2018-11-29T13:56:24.896Z,14.33
2018-11-29T13:58:52.363Z,15.50
2018-11-29T14:01:19.940Z,16.50
2018-11-29T14:03:47.373Z,14.40
2018-11-29T14:06:14.838Z,15.40
2018-11-29T14:08:42.297Z,16.20
2018-11-29T14:11:09.768Z,14.57
2018-11-29T14:13:37.172Z,14.70
2018-11-29T14:16:04.862Z,15.03
2018-11-29T14:18:32.289Z,14.43
2018-11-29T14:20:59.745Z,15.00
2018-11-29T14:23:27.453Z,16.50
2018-11-29T14:25:54.902Z,15.20
2018-11-29T14:28:22.385Z,16.33
2018-11-29T14:30:49.815Z,15.33
2018-11-29T14:33:17.369Z,15.20
2018-11-29T14:35:44.893Z,14.80
2018-11-29T14:38:12.438Z,16.40
2018-11-29T14:40:39.854Z,14.70
2018-11-29T14:43:07.373Z,14.90
2018-11-29T14:45:34.783Z,14.77
2018-11-29T14:48:02.270Z,16.30
2018-11-29T14:50:34.987Z,15.13
2018-11-29T14:53:02.491Z,14.90
2018-11-29T14:55:30.054Z,15.00
2018-11-29T14:57:57.614Z,15.87
2018-11-29T15:00:25.011Z,16.60
2018-11-29T15:02:52.833Z,15.47
2018-11-29T15:05:24.568Z,15.10
2018-11-29T15:07:51.985Z,15.10
2018-11-29T15:10:19.496Z,16.77
2018-11-29T15:12:46.986Z,15.83
2018-11-29T15:15:14.412Z,15.00
2018-11-29T15:17:43.305Z,13.73
2018-11-29T15:20:15.353Z,14.03
2018-11-29T15:22:42.970Z,15.43
2018-11-29T15:25:10.412Z,14.83
2018-11-29T15:27:37.883Z,15.07
2018-11-29T15:30:09.473Z,15.47
2018-11-29T15:32:36.925Z,15.27
2018-11-29T15:35:05.254Z,15.50
2018-11-29T15:37:32.828Z,15.30
2018-11-29T15:40:00.353Z,15.83
2018-11-29T15:42:27.813Z,15.40
2018-11-29T15:44:55.309Z,16.10
2018-11-29T15:47:22.764Z,14.83
2018-11-29T15:49:50.230Z,15.07
2018-11-29T15:52:17.662Z,14.00
2018-11-29T15:54:45.120Z,15.87
2018-11-29T15:57:12.682Z,14.83
2018-11-29T15:59:40.114Z,15.40
2018-11-29T16:02:07.566Z,14.53
2018-11-29T16:04:34.968Z,15.50
2018-11-29T16:07:02.409Z,15.03
2018-11-29T16:09:29.789Z,15.33
2018-11-29T16:11:57.330Z,15.90
2018-11-29T16:14:24.777Z,14.03
2018-11-29T16:16:52.235Z,14.53
2018-11-29T16:19:19.658Z,15.97
2018-11-29T16:21:47.116Z,15.20
2018-11-29T16:24:14.531Z,15.10
2018-11-29T16:26:42.002Z,15.00
2018-11-29T16:29:09.407Z,15.27
2018-11-29T16:31:36.924Z,15.93
2018-11-29T16:34:04.619Z,13.00
2018-11-29T16:36:32.025Z,13.17
2018-11-29T16:38:59.521Z,14.10
2018-11-29T16:41:27.001Z,13.40
2018-11-29T16:43:54.521Z,15.13
2018-11-29T16:46:21.920Z,15.00
2018-11-29T16:48:49.367Z,15.23
2018-11-29T16:51:16.789Z,15.10
2018-11-29T16:53:44.287Z,14.03
2018-11-29T16:56:11.732Z,14.77
2018-11-29T16:58:39.140Z,15.57
2018-11-29T17:01:08.811Z,15.27
2018-11-29T17:03:34.299Z,14.10
2018-11-29T17:06:01.727Z,15.03
2018-11-29T17:08:29.201Z,14.50
2018-11-29T17:10:56.621Z,15.00
2018-11-29T17:13:24.097Z,14.27
2018-11-29T17:15:51.536Z,13.57
2018-11-29T17:18:19.016Z,15.97
2018-11-29T17:20:46.509Z,16.27
2018-11-29T17:23:14.018Z,15.57
2018-11-29T17:25:41.668Z,16.60
2018-11-29T17:28:09.196Z,15.30
2018-11-29T17:30:37.189Z,15.93
2018-11-29T17:33:05.470Z,15.87
2018-11-29T17:38:06.119Z,15.03
2018-11-29T17:40:33.983Z,15.63
2018-11-29T17:43:01.519Z,14.40
2018-11-29T17:45:29.709Z,14.60
2018-11-29T17:47:58.442Z,14.60
2018-11-29T17:50:30.223Z,16.00
2018-11-29T17:52:57.661Z,15.40
2018-11-29T17:55:25.803Z,16.30
2018-11-29T17:57:53.793Z,14.43
2018-11-29T18:00:23.525Z,15.07
2018-11-29T18:02:51.074Z,17.00
2018-11-29T18:05:18.488Z,15.57
2018-11-29T18:07:45.945Z,15.17
2018-11-29T18:10:22.273Z,16.67
2018-11-29T18:12:52.915Z,14.80
2018-11-29T18:15:22.030Z,16.80
2018-11-29T18:17:49.503Z,15.80
2018-11-29T18:20:17.033Z,15.30
2018-11-29T18:22:44.446Z,16.23
2018-11-29T18:25:13.027Z,16.63
2018-11-29T18:27:42.150Z,16.23
2018-11-29T18:30:11.033Z,15.90
2018-11-29T18:32:39.446Z,16.10
2018-11-29T18:35:07.635Z,15.77
2018-11-29T18:37:35.025Z,15.97
2018-11-29T18:40:02.505Z,16.57
2018-11-29T18:42:29.957Z,15.20
2018-11-29T18:44:57.361Z,16.40
2018-11-29T18:47:24.822Z,16.47
2018-11-29T18:49:52.257Z,16.27
2018-11-29T18:52:19.710Z,16.47
2018-11-29T18:54:47.148Z,16.10
2018-11-29T18:57:14.545Z,15.33
2018-11-29T18:59:42.281Z,15.43
2018-11-29T19:02:09.712Z,16.40
2018-11-29T19:04:37.299Z,16.47
2018-11-29T19:07:05.483Z,15.80
2018-11-29T19:09:32.933Z,14.90
2018-11-29T19:12:00.470Z,14.53
2018-11-29T19:14:27.973Z,16.10
2018-11-29T19:16:55.425Z,15.37
2018-11-29T19:19:22.833Z,15.33
2018-11-29T19:21:50.421Z,15.90
2018-11-29T19:24:17.875Z,15.83
2018-11-29T19:26:45.362Z,15.80
2018-11-29T19:29:12.749Z,15.47
2018-11-29T19:31:40.193Z,15.60
2018-11-29T19:34:07.636Z,15.60
2018-11-29T19:36:35.089Z,15.30
2018-11-29T19:39:02.722Z,15.50
2018-11-29T19:41:30.154Z,16.03
2018-11-29T19:43:57.919Z,16.63
2018-11-29T19:46:25.249Z,14.70
2018-11-29T19:48:52.811Z,15.77
2018-11-29T19:51:20.211Z,16.23
2018-11-29T19:53:47.690Z,15.90
2018-11-29T19:56:15.432Z,16.30
2018-11-29T19:58:42.845Z,15.80
2018-11-29T20:01:10.304Z,16.00
2018-11-29T20:03:37.743Z,15.47
2018-11-29T20:06:05.475Z,16.90
2018-11-29T20:08:33.832Z,15.93
2018-11-29T20:11:01.475Z,15.33
2018-11-29T20:13:28.893Z,17.00
2018-11-29T20:15:56.348Z,17.40
2018-11-29T20:18:23.822Z,15.90
2018-11-29T20:20:51.225Z,16.80
2018-11-29T20:23:18.679Z,15.87
2018-11-29T20:25:46.893Z,17.07
2018-11-29T20:28:14.400Z,15.27
2018-11-29T20:30:41.808Z,16.23
2018-11-29T20:33:09.273Z,15.30
2018-11-29T20:35:36.696Z,15.77
2018-11-29T20:38:04.561Z,16.00
2018-11-29T20:40:33.477Z,15.27
2018-11-29T20:43:01.372Z,15.30
2018-11-29T20:45:34.791Z,15.77
2018-11-29T20:48:08.919Z,15.40
2018-11-29T20:50:36.341Z,16.20
2018-11-29T20:53:04.227Z,14.83
2018-11-29T20:55:31.692Z,15.80
2018-11-29T20:57:59.245Z,16.60
2018-11-29T21:00:26.656Z,16.03
2018-11-29T21:02:54.184Z,16.37
2018-11-29T21:05:22.581Z,16.30
2018-11-29T21:07:53.474Z,17.30
2018-11-29T21:10:23.025Z,16.50
2018-11-29T21:12:50.480Z,16.00
2018-11-29T21:15:18.487Z,16.43
2018-11-29T21:17:46.248Z,17.00
2018-11-29T21:20:14.827Z,15.87
2018-11-29T21:22:43.365Z,17.17
2018-11-29T21:25:12.518Z,16.70
2018-11-29T21:27:40.166Z,17.03
2018-11-29T21:30:11.888Z,16.63
2018-11-29T21:32:39.397Z,18.30
2018-11-29T21:35:07.867Z,17.53
2018-11-29T21:37:35.304Z,18.10
2018-11-29T21:40:04.138Z,16.37
2018-11-29T21:42:31.593Z,17.43
2018-11-29T21:44:59.075Z,18.43
2018-11-29T21:47:26.605Z,18.43
2018-11-29T21:49:54.047Z,18.00
2018-11-29T21:52:21.708Z,18.30
2018-11-29T21:54:49.488Z,18.07
2018-11-29T21:57:16.945Z,17.43
2018-11-29T21:59:44.317Z,16.87
2018-11-29T22:02:11.805Z,18.60
2018-11-29T22:04:39.371Z,18.23
2018-11-29T22:07:06.840Z,19.47
2018-11-29T22:09:34.468Z,18.17
2018-11-29T22:12:02.350Z,19.03
2018-11-29T22:14:29.876Z,18.70
2018-11-29T22:16:57.310Z,16.60
2018-11-29T22:19:24.784Z,18.80
2018-11-29T22:21:52.188Z,17.90
2018-11-29T22:24:19.634Z,18.40
2018-11-29T22:26:47.024Z,17.20
2018-11-29T22:29:14.440Z,18.07
2018-11-29T22:31:41.850Z,18.43
2018-11-29T22:34:09.400Z,19.57
2018-11-29T22:36:36.833Z,18.77
2018-11-29T22:39:07.184Z,19.43
2018-11-29T22:41:34.583Z,18.30
2018-11-29T22:44:02.062Z,18.53
2018-11-29T22:46:29.443Z,17.70
2018-11-29T22:48:56.909Z,19.40
2018-11-29T22:51:24.312Z,18.50
2018-11-29T22:53:51.793Z,17.70
2018-11-29T22:56:19.200Z,18.40
2018-11-29T22:58:46.634Z,18.83
2018-11-29T23:01:20.075Z,18.47
2018-11-29T23:03:47.514Z,18.17
2018-11-29T23:06:15.031Z,18.10
2018-11-29T23:08:42.482Z,19.93
2018-11-29T23:11:09.905Z,18.13
2018-11-29T23:13:37.388Z,18.00
2018-11-29T23:16:05.479Z,19.73
2018-11-29T23:18:32.919Z,19.00
2018-11-29T23:21:00.351Z,17.83
2018-11-29T23:23:27.774Z,19.57
2018-11-29T23:25:55.239Z,19.00
2018-11-29T23:28:22.805Z,17.37
2018-11-29T23:30:50.226Z,19.30
2018-11-29T23:33:17.655Z,19.83
2018-11-29T23:35:45.121Z,17.73
2018-11-29T23:38:12.550Z,19.90
2018-11-29T23:40:40.037Z,19.27
2018-11-29T23:43:07.480Z,18.40
2018-11-29T23:45:34.927Z,19.33
2018-11-29T23:48:02.335Z,19.13
2018-11-29T23:50:29.836Z,18.13
2018-11-29T23:52:57.289Z,18.13
2018-11-29T23:55:24.753Z,18.27
2018-11-29T23:57:52.236Z,17.90
